^^
Station Historical Data
Daily Summary for January 14, 2018 Units:  English    Metric   Both
« Previous Day
Next Day »
Daily Weekly Monthly Yearly Custom
  High: Low: Average:
Temperature: TemperatureF °F 17.2 °F 25 °F
Dew Point: DewpointF °F 6.1 °F 19.5 °F
Humidity: Humidity% 58% 79%
Wind Speed: WindSpeedMPHmph 0.0mph 5mph
Wind Gust: WindSpeedGustMPHmph - -
Wind- - South
Pressure: PressureIn in 30.17 in -
Precipitation: 0.02 in    
Historical Graphs
 
 
Tabular Data for January 14, 2018
Time Temperature Dew Point Pressure Wind Wind Speed Wind Gust Humidity Rainfall Rate (Hourly)
TemperatureF °F DewpointF °F PressureIn in Calm     Humidity% HourlyPrecipIn in
00:03 18.4 °F 6.1 °F 30.60 in ENE 4.0 mph 4.0 mph 58% 0.00 in
00:12 18.4 °F 6.1 °F 30.59 in SSE 8.1 mph 8.1 mph 58% 0.00 in
00:26 18.4 °F 6.1 °F 30.59 in ESE 6.9 mph 6.9 mph 58% 0.00 in
00:32 18.4 °F 6.1 °F 30.58 in SSE 5.8 mph 5.8 mph 58% 0.00 in
00:39 18.4 °F 6.4 °F 30.58 in SE 10.4 mph 10.4 mph 59% 0.00 in
00:50 18.4 °F 6.8 °F 30.58 in ESE 3.5 mph 3.5 mph 60% 0.00 in
00:56 18.5 °F 6.5 °F 30.58 in SE 4.0 mph 4.0 mph 59% 0.00 in
01:09 18.5 °F 6.5 °F 30.58 in East 6.9 mph 6.9 mph 59% 0.00 in
01:22 18.4 °F 7.2 °F 30.57 in East 4.6 mph 4.6 mph 61% 0.00 in
01:30 18.4 °F 7.5 °F 30.57 in SSE 2.3 mph 2.3 mph 62% 0.00 in
01:38 18.3 °F 8.1 °F 30.57 in SSE 5.8 mph 5.8 mph 64% 0.00 in
01:56 18.0 °F 9.9 °F 30.57 in ESE 3.5 mph 3.5 mph 70% 0.00 in
02:11 17.8 °F 10.3 °F 30.57 in SE 4.6 mph 4.6 mph 72% 0.00 in
02:27 17.6 °F 10.7 °F 30.57 in SE 2.3 mph 2.3 mph 74% 0.00 in
02:36 17.5 °F 11.2 °F 30.57 in SE 3.5 mph 3.5 mph 76% 0.00 in
02:42 17.5 °F 11.5 °F 30.57 in SE 2.3 mph 2.3 mph 77% 0.00 in
02:50 17.5 °F 11.8 °F 30.56 in SSE 4.6 mph 4.6 mph 78% 0.00 in
02:55 17.4 °F 11.7 °F 30.56 in SE 3.5 mph 3.5 mph 78% 0.00 in
03:07 17.3 °F 12.2 °F 30.56 in ESE 3.5 mph 3.5 mph 80% 0.00 in
03:13 17.3 °F 12.5 °F 30.56 in SE 2.3 mph 2.3 mph 81% 0.00 in
03:19 17.3 °F 12.7 °F 30.56 in SE 3.5 mph 3.5 mph 82% 0.00 in
03:26 17.3 °F 13.0 °F 30.56 in SE 1.2 mph 1.2 mph 83% 0.00 in
03:34 17.2 °F 13.2 °F 30.56 in SE 3.0 mph 3.0 mph 84% 0.00 in
03:42 17.2 °F 13.5 °F 30.56 in ESE 3.5 mph 3.5 mph 85% 0.00 in
03:56 17.2 °F 13.5 °F 30.56 in SSE 3.5 mph 3.5 mph 85% 0.00 in
04:02 17.2 °F 13.7 °F 30.55 in SSE 2.3 mph 2.3 mph 86% 0.00 in
04:13 17.3 °F 13.8 °F 30.55 in SSE 4.0 mph 4.0 mph 86% 0.00 in
04:18 17.4 °F 13.9 °F 30.55 in SSE 3.5 mph 3.5 mph 86% 0.00 in
04:23 17.4 °F 13.9 °F 30.55 in SSE 2.3 mph 2.3 mph 86% 0.00 in
04:36 17.5 °F 14.3 °F 30.54 in SSE 2.3 mph 2.3 mph 87% 0.00 in
04:42 17.5 °F 14.3 °F 30.54 in SE 3.5 mph 3.5 mph 87% 0.00 in
04:47 17.5 °F 14.6 °F 30.54 in SSE 4.6 mph 4.6 mph 88% 0.00 in
04:59 17.6 °F 14.7 °F 30.54 in SE 3.5 mph 3.5 mph 88% 0.00 in
05:05 17.6 °F 14.7 °F 30.53 in SE 2.3 mph 2.3 mph 88% 0.00 in
05:14 17.7 °F 14.8 °F 30.53 in SE 2.3 mph 2.3 mph 88% 0.00 in
05:21 17.8 °F 15.1 °F 30.53 in SE 3.0 mph 3.0 mph 89% 0.00 in
05:26 17.8 °F 15.1 °F 30.53 in SSE 4.6 mph 4.6 mph 89% 0.00 in
05:39 17.9 °F 15.2 °F 30.52 in SE 3.5 mph 3.5 mph 89% 0.00 in
05:53 17.9 °F 15.2 °F 30.52 in SE 4.0 mph 4.0 mph 89% 0.00 in
06:02 18.0 °F 15.3 °F 30.51 in SE 9.2 mph 9.2 mph 89% 0.00 in
06:07 18.0 °F 15.3 °F 30.52 in South 2.3 mph 2.3 mph 89% 0.00 in
06:15 18.0 °F 15.3 °F 30.51 in SSE 3.5 mph 3.5 mph 89% 0.00 in
06:36 18.2 °F 15.5 °F 30.51 in ESE 3.5 mph 3.5 mph 89% 0.00 in
06:45 18.2 °F 15.5 °F 30.51 in South 3.5 mph 3.5 mph 89% 0.00 in
06:51 18.2 °F 15.5 °F 30.51 in SSE 3.5 mph 3.5 mph 89% 0.00 in
07:00 18.4 °F 15.4 °F 30.51 in SE 4.6 mph 4.6 mph 88% 0.00 in
07:19 18.4 °F 15.7 °F 30.51 in SSE 3.5 mph 3.5 mph 89% 0.00 in
07:25 18.4 °F 15.7 °F 30.51 in SSE 3.5 mph 3.5 mph 89% 0.00 in
07:31 18.5 °F 15.8 °F 30.51 in SSE 2.3 mph 2.3 mph 89% 0.00 in
07:36 18.6 °F 15.9 °F 30.51 in ESE 4.6 mph 4.6 mph 89% 0.00 in
07:44 18.7 °F 16.0 °F 30.50 in ESE 3.5 mph 3.5 mph 89% 0.00 in
07:56 18.8 °F 16.1 °F 30.50 in SSE 3.5 mph 3.5 mph 89% 0.00 in
08:04 18.9 °F 16.2 °F 30.50 in SSE 3.5 mph 3.5 mph 89% 0.00 in
08:19 19.1 °F 16.7 °F 30.49 in SSE 8.1 mph 8.1 mph 90% 0.00 in
08:33 19.3 °F 16.8 °F 30.48 in SSE 4.0 mph 4.0 mph 90% 0.00 in
08:46 19.6 °F 17.1 °F 30.48 in SSE 2.3 mph 2.3 mph 90% 0.00 in
08:53 19.8 °F 17.3 °F 30.48 in South 4.6 mph 4.6 mph 90% 0.00 in
08:58 19.9 °F 17.4 °F 30.48 in SSE 4.6 mph 4.6 mph 90% 0.00 in
09:14 20.7 °F 17.7 °F 30.47 in SSE 4.6 mph 4.6 mph 88% 0.00 in
09:37 21.4 °F 18.4 °F 30.47 in SSE 11.5 mph 11.5 mph 88% 0.00 in
09:42 21.4 °F 18.4 °F 30.47 in East 6.9 mph 6.9 mph 88% 0.00 in
09:48 21.6 °F 18.6 °F 30.47 in South 5.8 mph 5.8 mph 88% 0.00 in
09:56 21.8 °F 18.8 °F 30.47 in South 5.8 mph 5.8 mph 88% 0.00 in
10:01 22.0 °F 19.0 °F 30.47 in South 4.6 mph 4.6 mph 88% 0.00 in
10:07 22.2 °F 18.9 °F 30.46 in SSE 10.4 mph 10.4 mph 87% 0.00 in
10:12 22.4 °F 19.1 °F 30.46 in South 8.1 mph 8.1 mph 87% 0.00 in
10:17 22.6 °F 19.3 °F 30.46 in SSE 4.6 mph 4.6 mph 87% 0.00 in
10:26 22.9 °F 19.6 °F 30.46 in South 8.1 mph 8.1 mph 87% 0.00 in
10:31 23.1 °F 19.8 °F 30.46 in South 9.2 mph 9.2 mph 87% 0.00 in
10:38 23.5 °F 20.2 °F 30.46 in South 10.4 mph 10.4 mph 87% 0.00 in
10:43 23.6 °F 20.0 °F 30.45 in South 12.0 mph 12.0 mph 86% 0.00 in
11:00 24.3 °F 20.7 °F 30.44 in SSW 8.1 mph 8.1 mph 86% 0.00 in
11:07 24.5 °F 20.9 °F 30.44 in SSE 8.1 mph 8.1 mph 86% 0.00 in
11:13 24.7 °F 21.1 °F 30.43 in SSW 15.0 mph 15.0 mph 86% 0.00 in
11:21 25.1 °F 21.5 °F 30.43 in SSW 11.5 mph 11.5 mph 86% 0.00 in
11:30 25.4 °F 21.5 °F 30.42 in South 10.4 mph 10.4 mph 85% 0.00 in
11:45 25.7 °F 21.8 °F 30.40 in South 5.8 mph 5.8 mph 85% 0.00 in
11:51 25.9 °F 22.0 °F 30.40 in SW 9.2 mph 9.2 mph 85% 0.00 in
11:59 26.3 °F 22.4 °F 30.40 in SSE 4.6 mph 4.6 mph 85% 0.00 in
12:05 26.6 °F 22.4 °F 30.40 in SW 5.0 mph 5.0 mph 84% 0.00 in
12:20 26.8 °F 22.6 °F 30.38 in West 8.1 mph 8.1 mph 84% 0.00 in
12:29 26.9 °F 23.0 °F 30.37 in SSW 10.4 mph 10.4 mph 85% 0.00 in
12:35 27.3 °F 23.1 °F 30.36 in SW 4.6 mph 4.6 mph 84% 0.00 in
12:48 27.7 °F 23.2 °F 30.34 in SSW 11.5 mph 11.5 mph 83% 0.00 in
12:58 28.1 °F 23.3 °F 30.35 in SW 9.2 mph 9.2 mph 82% 0.00 in
13:07 28.3 °F 23.5 °F 30.35 in South 5.8 mph 5.8 mph 82% 0.00 in
13:24 28.7 °F 23.6 °F 30.33 in SSE 9.2 mph 9.2 mph 81% 0.00 in
13:29 28.8 °F 23.7 °F 30.33 in West 8.1 mph 8.1 mph 81% 0.00 in
13:35 29.0 °F 23.6 °F 30.33 in SW 5.8 mph 5.8 mph 80% 0.00 in
13:44 29.4 °F 23.7 °F 30.32 in SSW 5.0 mph 5.0 mph 79% 0.00 in
13:52 29.5 °F 23.5 °F 30.31 in SW 6.9 mph 6.9 mph 78% 0.00 in
13:57 29.4 °F 23.1 °F 30.31 in SSW 5.8 mph 5.8 mph 77% 0.00 in
14:03 29.8 °F 23.2 °F 30.31 in SW 5.8 mph 5.8 mph 76% 0.00 in
14:13 30.2 °F 22.6 °F 30.30 in SSE 9.2 mph 9.2 mph 73% 0.00 in
14:22 30.5 °F 22.9 °F 30.29 in South 11.5 mph 11.5 mph 73% 0.01 in
14:29 30.8 °F 23.2 °F 30.29 in SSW 6.9 mph 6.9 mph 73% 0.01 in
14:41 30.7 °F 23.1 °F 30.29 in SW 10.4 mph 10.4 mph 73% 0.01 in
14:47 30.6 °F 23.0 °F 30.29 in SW 10.4 mph 10.4 mph 73% 0.01 in
14:55 30.7 °F 23.1 °F 30.29 in SSW 8.1 mph 8.1 mph 73% 0.01 in
15:00 30.6 °F 22.6 °F 30.28 in SSW 11.5 mph 11.5 mph 72% 0.02 in
15:08 30.7 °F 22.7 °F 30.28 in South 9.2 mph 9.2 mph 72% 0.02 in
15:14 30.8 °F 22.8 °F 30.28 in SW 11.5 mph 11.5 mph 72% 0.02 in
15:21 30.7 °F 22.4 °F 30.28 in West 8.1 mph 8.1 mph 71% 0.01 in
15:43 30.6 °F 22.6 °F 30.28 in SSW 3.5 mph 3.5 mph 72% 0.01 in
15:48 30.7 °F 22.7 °F 30.28 in SW 4.6 mph 4.6 mph 72% 0.01 in
15:54 30.5 °F 22.5 °F 30.28 in SW 3.5 mph 3.5 mph 72% 0.01 in
16:06 30.0 °F 22.1 °F 30.27 in SSE 9.2 mph 9.2 mph 72% 0.00 in
16:12 29.8 °F 22.2 °F 30.26 in SSW 2.3 mph 2.3 mph 73% 0.00 in
16:22 29.6 °F 22.0 °F 30.26 in SW 6.9 mph 6.9 mph 73% 0.00 in
16:28 29.5 °F 22.2 °F 30.26 in South 4.0 mph 4.0 mph 74% 0.00 in
16:39 29.3 °F 22.0 °F 30.25 in South 2.3 mph 2.4 mph 74% 0.00 in
16:47 29.2 °F 21.9 °F 30.25 in SSW 4.6 mph 4.6 mph 74% 0.00 in
16:54 29.1 °F 21.8 °F 30.25 in South 2.3 mph 2.3 mph 74% 0.00 in
16:59 29.0 °F 21.7 °F 30.25 in SSE 2.3 mph 2.3 mph 74% 0.00 in
17:07 28.9 °F 22.0 °F 30.25 in SSW 2.3 mph 2.3 mph 75% 0.00 in
17:26 28.6 °F 21.7 °F 30.23 in SSW 4.6 mph 4.6 mph 75% 0.00 in
17:35 28.6 °F 22.0 °F 30.23 in SSW 3.5 mph 3.5 mph 76% 0.00 in
17:42 28.6 °F 22.0 °F 30.23 in South 4.6 mph 4.6 mph 76% 0.00 in
17:48 28.6 °F 21.7 °F 30.23 in SSW 5.0 mph 5.0 mph 75% 0.00 in
17:54 28.6 °F 21.7 °F 30.22 in South 3.5 mph 3.5 mph 75% 0.00 in
18:00 28.5 °F 21.6 °F 30.22 in SSE 4.6 mph 4.6 mph 75% 0.00 in
18:16 28.4 °F 21.8 °F 30.22 in SSE 4.6 mph 4.6 mph 76% 0.00 in
18:23 28.4 °F 21.8 °F 30.22 in South 6.0 mph 6.0 mph 76% 0.00 in
18:31 28.4 °F 21.8 °F 30.21 in South 3.5 mph 3.5 mph 76% 0.00 in
18:36 28.4 °F 21.8 °F 30.21 in South 5.8 mph 5.8 mph 76% 0.00 in
18:42 28.4 °F 21.8 °F 30.21 in South 5.8 mph 5.8 mph 76% 0.00 in
18:56 28.8 °F 22.2 °F 30.21 in SSE 5.0 mph 5.0 mph 76% 0.00 in
19:01 29.1 °F 22.5 °F 30.21 in SSW 6.0 mph 6.0 mph 76% 0.00 in
19:08 29.4 °F 22.5 °F 30.20 in South 6.9 mph 6.9 mph 75% 0.00 in
19:14 29.8 °F 22.8 °F 30.20 in SSW 3.5 mph 3.5 mph 75% 0.00 in
19:19 30.1 °F 22.5 °F 30.21 in SSE 8.1 mph 8.1 mph 73% 0.00 in
19:25 30.5 °F 22.9 °F 30.21 in SSW 5.8 mph 5.8 mph 73% 0.00 in
19:31 30.7 °F 22.7 °F 30.21 in SSE 3.5 mph 3.5 mph 72% 0.00 in
19:40 30.9 °F 22.9 °F 30.21 in SSW 5.8 mph 5.8 mph 72% 0.00 in
19:46 31.1 °F 23.1 °F 30.21 in South 5.8 mph 5.8 mph 72% 0.00 in
19:54 31.1 °F 23.5 °F 30.21 in South 4.6 mph 4.6 mph 73% 0.00 in
20:01 31.2 °F 23.5 °F 30.21 in SSW 5.8 mph 5.8 mph 73% 0.00 in
20:06 31.3 °F 23.6 °F 30.20 in South 5.8 mph 5.8 mph 73% 0.00 in
20:18 31.4 °F 23.7 °F 30.20 in SSW 1.2 mph 1.2 mph 73% 0.00 in
20:26 31.4 °F 23.7 °F 30.20 in SSW 3.5 mph 3.5 mph 73% 0.00 in
20:34 31.6 °F 23.9 °F 30.19 in South 5.8 mph 5.8 mph 73% 0.00 in
20:39 31.7 °F 24.0 °F 30.18 in SSE 3.5 mph 3.5 mph 73% 0.00 in
20:47 31.9 °F 24.2 °F 30.19 in South 3.5 mph 3.5 mph 73% 0.00 in
20:53 32.0 °F 24.3 °F 30.18 in South 5.8 mph 5.8 mph 73% 0.00 in
21:00 32.2 °F 24.5 °F 30.18 in SSW 6.0 mph 6.0 mph 73% 0.00 in
21:24 32.6 °F 24.9 °F 30.18 in WSW 2.0 mph 2.0 mph 73% 0.00 in
21:30 32.6 °F 24.6 °F 30.18 in SSW 3.5 mph 3.5 mph 72% 0.00 in
21:36 32.6 °F 24.6 °F 30.18 in SW 2.3 mph 2.3 mph 72% 0.00 in
21:43 32.6 °F 24.9 °F 30.18 in WSW 2.3 mph 2.3 mph 73% 0.00 in
21:49 32.6 °F 24.9 °F 30.18 in SSW 3.5 mph 3.5 mph 73% 0.00 in
21:54 32.5 °F 25.5 °F 30.18 in SSW 2.3 mph 2.3 mph 75% 0.00 in
22:07 32.4 °F 26.0 °F 30.17 in South 3.5 mph 3.5 mph 77% 0.00 in
22:14 32.4 °F 26.6 °F 30.17 in SSE 3.5 mph 3.5 mph 79% 0.00 in
22:32 32.4 °F 28.1 °F 30.18 in SSE 1.2 mph 1.2 mph 84% 0.00 in
22:37 32.4 °F 28.4 °F 30.17 in SSW 3.5 mph 3.5 mph 85% 0.00 in
22:49 32.6 °F 29.2 °F 30.18 in WSW 1.2 mph 1.2 mph 87% 0.00 in
22:54 32.6 °F 29.4 °F 30.18 in SW 1.2 mph 1.2 mph 88% 0.00 in
23:07 32.5 °F 29.6 °F 30.19 in SW 1.2 mph 1.2 mph 89% 0.00 in
23:12 32.4 °F 29.5 °F 30.19 in West 1.2 mph 1.2 mph 89% 0.00 in
23:18 32.3 °F 29.7 °F 30.19 in Calm     90% 0.00 in
23:25 32.2 °F 29.6 °F 30.19 in West 1.2 mph 1.2 mph 90% 0.00 in
23:34 32.1 °F 29.8 °F 30.20 in Calm   0.1 mph 91% 0.00 in
23:39 32.0 °F 29.7 °F 30.20 in NW 1.2 mph 1.2 mph 91% 0.00 in
23:44 32.0 °F 29.9 °F 30.20 in West 1.2 mph 1.2 mph 92% 0.00 in
23:50 32.0 °F 29.9 °F 30.20 in North 2.3 mph 2.3 mph 92% 0.00 in
23:56 32.0 °F 29.9 °F 30.20 in NW 1.2 mph 1.2 mph 92% 0.00 in
Live Lenexa Weather
Compliments of Weather Underground - 1.5 mb